Date,TemperatureHighF,TemperatureAvgF,TemperatureLowF,DewpointHighF,DewpointAvgF,DewpointLowF,HumidityHigh,HumidityAvg,HumidityLow,PressureMaxIn,PressureMinIn,WindSpeedMaxMPH,WindSpeedAvgMPH,GustSpeedMaxMPH,PrecipitationSumIn
2013-1-1,43.7,41.3,38.0,34.9,32.5,30.7,86,71,61,29.98,29.86,7,2,14,0.00
2013-1-2,39.9,34.8,29.0,31.5,22.8,15.6,73,61,46,30.19,29.95,9,4,16,0.00
2013-1-3,36.3,31.5,27.0,26.0,19.2,15.5,67,60,55,30.22,30.13,8,3,14,0.00
2013-1-4,42.5,37.8,32.4,41.9,21.9,19.2,100,53,43,30.17,30.05,12,7,25,0.00
2013-1-5,40.6,37.2,33.8,30.7,23.9,19.8,78,59,49,30.34,30.11,9,3,18,0.00
2013-1-6,47.3,41.6,35.5,35.3,31.8,26.7,88,69,46,30.19,29.99,6,2,11,0.00
2013-1-7,46.2,40.7,31.8,31.5,28.5,25.6,89,63,45,30.40,30.08,10,4,17,0.00
2013-1-8,50.2,41.5,31.3,36.3,33.2,27.9,91,73,52,30.41,30.33,13,3,21,0.00
2013-1-9,55.7,45.7,34.7,55.0,39.4,29.3,100,80,45,30.35,30.19,10,3,18,0.00
2013-1-10,53.2,46.1,37.1,35.3,31.5,28.1,84,58,39,30.54,30.33,11,4,19,0.00
2013-1-11,48.0,41.5,33.1,46.8,38.2,30.5,100,88,78,30.47,30.06,4,0,8,0.07
2013-1-12,49.5,43.6,41.8,46.1,39.3,-99.9,98,92,86,30.13,30.06,7,1,10,0.00
2013-1-13,52.7,46.0,40.9,51.9,45.1,39.8,97,97,96,30.10,29.96,4,2,11,0.00
2013-1-14,59.6,52.8,42.0,58.1,50.3,38.8,97,91,73,30.23,29.93,13,6,24,0.14
2013-1-15,41.9,38.6,36.3,40.5,34.8,-99.9,96,93,94,30.30,30.11,12,5,24,0.88
2013-1-16,42.5,31.5,35.2,41.4,12.5,-99.9,98,78,94,30.10,29.80,9,4,25,0.38
2013-1-17,42.7,40.5,36.3,41.7,38.2,34.3,97,91,78,30.09,29.93,6,2,12,0.14
2013-1-18,39.1,35.9,28.5,35.0,24.0,15.2,91,63,38,30.48,29.99,15,6,31,0.00
2013-1-19,50.5,42.0,34.5,36.5,31.9,26.0,77,67,54,30.42,29.98,13,7,22,0.00
2013-1-20,58.1,47.2,39.9,35.7,27.9,13.3,65,49,27,30.02,29.79,14,10,24,0.00
2013-1-21,45.7,36.1,28.1,36.2,22.0,13.4,80,57,43,30.08,29.74,17,5,30,0.00
2013-1-22,32.4,23.2,19.5,14.1,0.7,-6.3,50,37,27,30.25,29.87,18,10,35,0.00
2013-1-23,25.4,21.6,17.2,12.0,2.9,-2.3,61,45,31,30.31,30.13,12,6,25,0.00
2013-1-24,29.2,22.7,17.3,16.2,9.2,-1.6,87,58,30,30.47,30.05,13,7,26,0.00
2013-1-25,25.4,22.9,20.1,23.2,10.1,2.1,100,59,37,30.47,30.04,8,3,17,0.00
2013-1-26,33.5,27.5,23.2,19.8,17.7,15.8,81,67,53,30.40,30.04,9,4,17,0.00
2013-1-27,35.6,27.5,19.8,31.0,19.3,15.7,100,72,49,30.57,30.39,8,1,11,0.01
2013-1-28,47.7,36.5,30.6,41.8,32.2,25.5,93,84,78,30.49,30.02,10,4,18,0.03
2013-1-29,62.9,49.9,40.5,50.2,43.8,36.7,92,80,60,30.10,29.98,8,3,15,0.00
2013-1-30,63.2,56.3,47.6,56.7,52.1,44.5,96,86,74,29.99,29.30,14,7,31,0.00
2013-1-31,59.6,45.7,32.5,57.2,29.5,13.2,95,55,33,29.90,29.10,25,11,47,0.54